Hammond, Minnesota
Current Conditions -  °F | °C
As of 5:34 PM on Saturday 25 Oct 2014 (Local Time) from K9MN Reporting Station
Clear Clear  
Wind Chill: 61°   Ceiling: Unl
Heat Index: 61°   Visibility: 10mi
Dew Point: 26°   Wind: 10mph
Humidity: 26%   Direction: 290°WNW
Pressure: 30.03"   Gusts: 18mph
Location:  44.2838°N, 92.3888°W
Report Text: K9MN 252234Z AUTO 29009G16KT 10SM CLR 16/M03 A3003 RMK AO1 T01611035
Loading
Personal Weather Stations






























Interactive Weather Map
Tropical Storm Tracking
New forecast layout! Learn more

10-Day Weather Forecast

Advertisements
Track Severe Weather on mobile